Time;durP1;ratioP1;P1;durP2;ratioP2;P2;SDS_P1;SDS_P2;PMS_P1;PMS_P2;Temp;Humidity;BMP_temperature;BMP_pressure;BME280_temperature;BME280_humidity;BME280_pressure;Samples;Min_cycle;Max_cycle;Signal;HPM_P1;HPM_P2
2022/05/29 00:01:32;;;;;;;3.60;1.37;;;;;;;10.85;67.58;100706.16;5046932;28;20255;-81
2022/05/29 00:03:59;;;;;;;7.70;2.03;;;;;;;10.84;67.72;100693.81;5049283;28;20218;-82
2022/05/29 00:06:27;;;;;;;5.47;1.33;;;;;;;10.82;67.94;100697.50;5048951;28;20293;-81
2022/05/29 00:08:53;;;;;;;3.80;1.23;;;;;;;10.80;67.65;100684.28;5048221;28;20228;-82
2022/05/29 00:11:20;;;;;;;3.20;1.40;;;;;;;10.79;68.02;100694.09;5043017;28;20209;-82
2022/05/29 00:13:46;;;;;;;6.77;1.57;;;;;;;10.80;68.18;100697.59;5049377;28;20222;-83
2022/05/29 00:16:13;;;;;;;7.20;1.80;;;;;;;10.78;68.53;100686.19;5049242;28;20213;-83
2022/05/29 00:18:41;;;;;;;4.00;1.30;;;;;;;10.78;68.54;100683.53;5049295;28;20198;-81
2022/05/29 00:21:08;;;;;;;5.83;1.17;;;;;;;10.77;68.97;100682.66;5048954;28;20206;-81
2022/05/29 00:23:41;;;;;;;3.07;1.50;;;;;;;10.76;68.97;100686.28;5048150;28;20226;-82
2022/05/29 00:26:09;;;;;;;3.63;1.60;;;;;;;10.75;69.38;100687.22;5051214;28;20208;-80
2022/05/29 00:28:35;;;;;;;9.33;1.97;;;;;;;10.74;69.27;100672.22;5048718;28;20227;-80
2022/05/29 00:31:02;;;;;;;4.37;1.73;;;;;;;10.72;69.65;100676.81;5050842;28;20205;-81
2022/05/29 00:33:29;;;;;;;7.50;1.70;;;;;;;10.70;69.51;100677.84;5053100;28;20228;-81
2022/05/29 00:35:55;;;;;;;7.00;1.80;;;;;;;10.69;69.86;100673.47;5052342;28;20209;-81
2022/05/29 00:38:22;;;;;;;8.73;2.07;;;;;;;10.68;70.18;100663.75;5050558;28;20205;-81
2022/05/29 00:40:56;;;;;;;4.40;1.73;;;;;;;10.67;69.60;100662.91;5052636;28;20197;-80
2022/05/29 00:43:23;;;;;;;6.47;2.33;;;;;;;10.65;70.22;100669.28;5049318;28;20227;-80
2022/05/29 00:45:53;;;;;;;7.83;1.87;;;;;;;10.64;70.56;100665.75;5051588;28;20209;-80
2022/05/29 00:48:21;;;;;;;3.37;1.47;;;;;;;10.62;70.00;100666.81;5052134;28;20227;-81
2022/05/29 00:50:49;;;;;;;5.13;1.57;;;;;;;10.60;70.75;100664.25;5045921;28;20201;-80
2022/05/29 00:53:17;;;;;;;7.33;1.90;;;;;;;10.58;70.71;100657.28;5053027;28;20735;-80
2022/05/29 00:55:49;;;;;;;3.93;1.70;;;;;;;10.56;70.82;100656.56;5051519;28;20687;-81
2022/05/29 00:58:19;;;;;;;3.50;1.60;;;;;;;10.52;71.04;100655.91;5051063;28;20241;-80
2022/05/29 01:00:45;;;;;;;3.20;1.20;;;;;;;10.50;70.94;100646.28;5044902;28;20207;-80
2022/05/29 01:03:12;;;;;;;3.63;1.57;;;;;;;10.47;71.13;100651.81;5052715;28;20691;-81
2022/05/29 01:05:38;;;;;;;2.57;1.30;;;;;;;10.43;71.47;100637.81;5052761;28;20205;-80
2022/05/29 01:08:09;;;;;;;5.00;1.33;;;;;;;10.39;72.02;100639.81;5051776;28;20224;-80
2022/05/29 01:10:46;;;;;;;3.13;1.30;;;;;;;10.39;72.12;100639.81;5048148;28;20201;-80
2022/05/29 01:13:25;;;;;;;4.40;1.57;;;;;;;10.36;72.14;100645.34;5043743;28;20593;-80
2022/05/29 01:15:59;;;;;;;5.90;1.77;;;;;;;10.34;72.76;100641.06;5052230;28;20207;-80
2022/05/29 01:18:34;;;;;;;4.93;1.60;;;;;;;10.32;72.64;100641.16;5044926;28;20205;-80
2022/05/29 01:21:29;;;;;;;4.10;1.53;;;;;;;10.31;73.16;100639.44;5052206;28;20201;-80
2022/05/29 01:24:22;;;;;;;6.20;1.90;;;;;;;10.29;73.07;100632.50;5046073;28;20634;-80
2022/05/29 01:27:32;;;;;;;4.10;1.40;;;;;;;10.27;73.23;100643.25;5051235;28;20259;-80
2022/05/29 01:30:06;;;;;;;3.90;1.60;;;;;;;10.26;73.52;100640.69;5041052;28;20838;-81
2022/05/29 01:32:42;;;;;;;4.80;1.80;;;;;;;10.24;73.42;100635.44;5050415;28;20232;-80
2022/05/29 01:35:14;;;;;;;5.77;1.60;;;;;;;10.21;73.62;100632.97;5051847;28;20637;-80
2022/05/29 01:37:50;;;;;;;3.57;1.50;;;;;;;10.22;73.94;100633.81;5045770;28;20198;-80
2022/05/29 01:40:25;;;;;;;4.40;1.50;;;;;;;10.20;74.39;100630.44;5051423;28;20251;-80
2022/05/29 01:42:57;;;;;;;4.77;1.70;;;;;;;10.19;73.99;100629.56;5048624;28;20590;-81
2022/05/29 01:45:32;;;;;;;7.70;2.30;;;;;;;10.20;74.01;100633.94;5048344;28;20209;-81
2022/05/29 01:48:05;;;;;;;5.20;1.77;;;;;;;10.19;74.41;100629.56;5045130;28;20200;-81
2022/05/29 01:50:37;;;;;;;4.27;1.97;;;;;;;10.17;74.40;100618.13;5048604;28;20254;-80
2022/05/29 01:53:13;;;;;;;4.53;2.30;;;;;;;10.18;74.52;100616.31;5051263;28;20241;-80
2022/05/29 01:55:45;;;;;;;4.80;1.93;;;;;;;10.18;74.71;100619.84;5050309;28;20213;-82
2022/05/29 01:58:17;;;;;;;5.50;2.00;;;;;;;10.18;74.96;100613.66;5050620;28;20206;-79
2022/05/29 02:00:48;;;;;;;3.40;1.90;;;;;;;10.18;75.32;100619.00;5051774;28;20204;-79
2022/05/29 02:03:19;;;;;;;4.13;1.77;;;;;;;10.18;75.21;100614.53;5051426;28;20232;-81
2022/05/29 02:05:50;;;;;;;3.07;1.83;;;;;;;10.18;75.29;100619.00;5048190;28;20206;-82
2022/05/29 02:08:19;;;;;;;7.93;2.80;;;;;;;10.16;75.18;100607.59;5050831;28;20202;-82
2022/05/29 02:10:50;;;;;;;4.67;2.17;;;;;;;10.17;75.22;100617.28;5050913;28;20595;-82
2022/05/29 02:13:23;;;;;;;4.27;2.00;;;;;;;10.15;75.63;100614.72;5051405;28;20714;-82
2022/05/29 02:15:56;;;;;;;5.97;2.10;;;;;;;10.16;75.22;100616.41;5047636;28;20224;-82
2022/05/29 02:18:30;;;;;;;3.70;2.10;;;;;;;10.16;75.87;100610.25;5049345;28;20203;-82
2022/05/29 02:21:02;;;;;;;5.50;2.13;;;;;;;10.15;75.81;100604.06;5049967;28;20201;-83
2022/05/29 02:23:34;;;;;;;4.57;2.53;;;;;;;10.15;75.58;100613.84;5051062;28;20221;-82
2022/05/29 02:26:03;;;;;;;6.10;2.03;;;;;;;10.16;75.33;100608.44;5046127;28;20205;-82
2022/05/29 02:28:36;;;;;;;6.60;2.53;;;;;;;10.16;75.91;100603.13;5047476;28;20194;-81
2022/05/29 02:31:15;;;;;;;4.27;2.20;;;;;;;10.16;75.71;100611.09;5052666;28;20207;-82
2022/05/29 02:33:55;;;;;;;9.97;2.60;;;;;;;10.14;75.96;100607.69;5051164;28;20230;-80
2022/05/29 02:36:29;;;;;;;3.87;2.30;;;;;;;10.14;76.31;100602.34;5047630;28;20197;-81
2022/05/29 02:39:16;;;;;;;6.40;2.63;;;;;;;10.14;76.36;100598.84;5051100;28;20197;-81
2022/05/29 02:41:53;;;;;;;5.83;2.40;;;;;;;10.13;76.66;100595.31;5051307;28;20223;-81
2022/05/29 02:44:36;;;;;;;5.40;2.90;;;;;;;10.14;75.98;100590.84;5043339;28;20197;-82
2022/05/29 02:47:12;;;;;;;5.03;2.93;;;;;;;10.14;76.82;100593.50;5047200;28;20198;-82
2022/05/29 02:49:45;;;;;;;5.80;2.57;;;;;;;10.13;76.27;100590.00;5044925;28;20705;-81
2022/05/29 02:52:15;;;;;;;4.37;2.50;;;;;;;10.13;77.17;100583.81;5049503;28;20221;-81
2022/05/29 02:54:41;;;;;;;8.07;2.93;;;;;;;10.10;76.95;100580.41;5045343;28;20209;-80
2022/05/29 02:57:09;;;;;;;7.20;3.07;;;;;;;10.10;77.09;100575.06;5049037;28;20581;-81
2022/05/29 02:59:40;;;;;;;6.30;2.53;;;;;;;10.11;76.85;100575.94;5044798;28;20568;-81
2022/05/29 03:02:16;;;;;;;5.03;2.30;;;;;;;10.12;77.28;100577.63;5046284;28;20728;-82
2022/05/29 03:04:55;;;;;;;7.97;2.70;;;;;;;10.11;77.10;100581.25;5047793;28;20734;-82
2022/05/29 03:07:37;;;;;;;5.50;2.63;;;;;;;10.11;76.80;100575.94;5041766;28;20572;-82
2022/05/29 03:10:14;;;;;;;7.27;2.70;;;;;;;10.12;76.69;100582.09;5049495;28;20241;-83
2022/05/29 03:12:54;;;;;;;4.03;2.73;;;;;;;10.10;76.87;100579.53;5050297;28;20239;-81
2022/05/29 03:15:35;;;;;;;5.50;2.47;;;;;;;10.09;77.09;100578.69;5049201;28;20204;-82
2022/05/29 03:18:21;;;;;;;4.90;2.70;;;;;;;10.09;77.67;100584.00;5049321;28;20207;-83
2022/05/29 03:20:57;;;;;;;8.40;3.33;;;;;;;10.08;77.32;100574.31;5049758;28;20197;-82
2022/05/29 03:23:33;;;;;;;8.63;3.37;;;;;;;10.10;77.17;100577.72;5044132;28;20678;-81
2022/05/29 03:26:04;;;;;;;7.30;3.20;;;;;;;10.11;77.42;100575.94;5046930;28;20201;-81
2022/05/29 03:28:37;;;;;;;6.73;3.20;;;;;;;10.09;77.87;100569.84;5048104;28;20202;-83
2022/05/29 03:31:10;;;;;;;8.83;3.53;;;;;;;10.08;77.78;100570.78;5041591;28;20216;-81
2022/05/29 03:33:40;;;;;;;9.67;3.20;;;;;;;10.08;77.51;100565.47;5036734;28;20658;-82
2022/05/29 03:36:11;;;;;;;6.80;3.70;;;;;;;10.07;77.73;100566.41;5038696;28;20656;-81
2022/05/29 03:38:38;;;;;;;9.10;3.20;;;;;;;10.07;78.17;100559.28;5046131;28;20798;-81
2022/05/29 03:41:11;;;;;;;6.53;2.87;;;;;;;10.08;78.07;100561.00;5039933;28;20569;-81
2022/05/29 03:43:40;;;;;;;6.00;3.23;;;;;;;10.08;78.39;100557.47;5034394;28;20844;-82
2022/05/29 03:46:06;;;;;;;9.20;3.23;;;;;;;10.09;78.14;100564.53;5041735;28;20300;-81
2022/05/29 03:48:33;;;;;;;10.60;3.97;;;;;;;10.10;78.18;100552.94;5039753;28;20232;-81
2022/05/29 03:51:05;;;;;;;7.83;3.70;;;;;;;10.10;78.75;100560.91;5034713;28;20268;-82
2022/05/29 03:53:31;;;;;;;8.87;3.50;;;;;;;10.12;78.71;100560.81;5049306;28;20225;-81
2022/05/29 03:55:58;;;;;;;7.60;3.77;;;;;;;10.13;78.85;100560.72;5038445;28;20240;-81
2022/05/29 03:58:25;;;;;;;8.87;3.83;;;;;;;10.13;78.24;100552.75;5041084;28;20248;-84
2022/05/29 04:00:52;;;;;;;6.77;3.30;;;;;;;10.16;78.85;100562.34;5039279;28;20194;-82
2022/05/29 04:03:18;;;;;;;4.90;3.30;;;;;;;10.15;78.46;100556.16;5038838;28;20237;-82
2022/05/29 04:05:45;;;;;;;3.37;2.50;;;;;;;10.15;78.63;100552.66;5035254;28;20206;-81
2022/05/29 04:13:43;;;;;;;5.63;3.10;;;;;;;10.13;78.31;100542.09;5037850;28;20730;-82
2022/05/29 04:16:10;;;;;;;8.53;3.67;;;;;;;10.14;78.75;100541.16;5045946;28;20237;-82
2022/05/29 04:18:37;;;;;;;9.73;3.30;;;;;;;10.16;78.75;100541.06;5041822;28;20213;-82
2022/05/29 04:21:05;;;;;;;9.63;4.27;;;;;;;10.16;78.41;100539.25;5046323;28;20193;-82
2022/05/29 04:23:33;;;;;;;7.10;3.23;;;;;;;10.16;78.70;100539.25;5036577;28;20222;-81
2022/05/29 04:26:00;;;;;;;7.63;3.70;;;;;;;10.17;78.48;100534.78;5044419;28;20202;-81
2022/05/29 04:28:27;;;;;;;10.33;3.53;;;;;;;10.18;78.47;100541.81;5047187;28;20212;-81
2022/05/29 04:30:53;;;;;;;9.50;3.33;;;;;;;10.18;78.34;100542.66;5044608;28;20218;-82
2022/05/29 04:33:22;;;;;;;8.93;3.43;;;;;;;10.19;78.64;100536.44;5048600;28;20221;-82
2022/05/29 04:35:50;;;;;;;8.43;3.17;;;;;;;10.21;78.26;100531.84;5039567;28;20650;-81
2022/05/29 04:38:17;;;;;;;9.43;3.40;;;;;;;10.23;78.09;100531.75;5048502;28;20202;-82
2022/05/29 04:40:46;;;;;;;6.20;2.90;;;;;;;10.23;78.50;100532.59;5043270;28;20200;-82
2022/05/29 04:43:14;;;;;;;8.53;3.17;;;;;;;10.25;78.41;100535.16;5045497;28;20225;-82
2022/05/29 04:45:43;;;;;;;5.27;2.57;;;;;;;10.26;78.42;100531.56;5049296;28;20654;-81
2022/05/29 04:48:10;;;;;;;8.43;3.27;;;;;;;10.28;77.89;100542.97;5047650;28;20296;-83
2022/05/29 04:50:37;;;;;;;8.93;3.27;;;;;;;10.29;77.72;100540.19;5046358;28;20240;-82
2022/05/29 04:53:04;;;;;;;7.27;2.70;;;;;;;10.33;78.13;100541.72;5048031;28;20599;-82
2022/05/29 04:55:31;;;;;;;7.73;2.97;;;;;;;10.34;77.69;100531.94;5049039;28;20205;-84
2022/05/29 04:57:59;;;;;;;10.20;3.50;;;;;;;10.35;77.46;100534.50;5051177;28;20198;-84
2022/05/29 05:00:26;;;;;;;8.13;2.80;;;;;;;10.38;77.57;100541.44;5049551;28;20688;-83
2022/05/29 05:02:52;;;;;;;6.87;2.70;;;;;;;10.43;77.55;100539.31;5047633;28;20742;-83
2022/05/29 05:05:19;;;;;;;5.07;2.67;;;;;;;10.43;77.18;100529.50;5046926;28;20209;-84
2022/05/29 05:07:45;;;;;;;8.50;2.70;;;;;;;10.46;76.60;100527.59;5046526;28;20208;-83
2022/05/29 05:10:15;;;;;;;6.27;3.10;;;;;;;10.48;76.50;100528.38;5047124;28;20218;-82
2022/05/29 05:12:41;;;;;;;8.07;3.10;;;;;;;10.49;76.53;100525.59;5050865;28;20234;-82
2022/05/29 05:15:11;;;;;;;7.40;2.70;;;;;;;10.52;75.90;100524.56;5048177;28;20583;-82
2022/05/29 05:17:38;;;;;;;8.90;3.07;;;;;;;10.54;76.19;100523.50;5051592;28;20209;-82
2022/05/29 05:20:07;;;;;;;6.70;2.60;;;;;;;10.58;76.28;100524.13;5047750;28;20201;-81
2022/05/29 05:22:34;;;;;;;5.83;2.57;;;;;;;10.61;75.89;100534.59;5045956;28;20230;-82
2022/05/29 05:25:01;;;;;;;7.30;2.40;;;;;;;10.63;75.85;100527.38;5050160;28;20208;-82
2022/05/29 05:27:28;;;;;;;9.57;2.97;;;;;;;10.64;75.16;100534.41;5043439;28;20210;-82
2022/05/29 05:29:54;;;;;;;7.73;2.47;;;;;;;10.69;75.61;100532.31;5047613;28;20227;-81
2022/05/29 05:32:22;;;;;;;6.03;2.50;;;;;;;10.71;75.59;100522.41;5047782;28;20221;-82
2022/05/29 05:34:49;;;;;;;6.33;2.53;;;;;;;10.73;75.10;100531.16;5052422;28;20210;-81
2022/05/29 05:37:16;;;;;;;6.47;2.77;;;;;;;10.79;75.53;100530.72;5045418;28;20673;-82
2022/05/29 05:39:43;;;;;;;6.60;2.63;;;;;;;10.83;75.04;100520.72;5047211;28;20546;-82
2022/05/29 05:42:10;;;;;;;6.23;3.20;;;;;;;10.85;75.02;100533.00;5045978;28;20232;-82
2022/05/29 05:44:37;;;;;;;5.43;2.50;;;;;;;10.87;74.61;100525.75;5048247;28;20297;-81
2022/05/29 05:47:04;;;;;;;7.43;3.13;;;;;;;10.86;74.73;100529.38;5041679;28;20206;-82
2022/05/29 05:49:32;;;;;;;7.50;3.07;;;;;;;10.85;74.01;100533.00;5041945;28;20210;-83
2022/05/29 05:51:59;;;;;;;8.07;3.10;;;;;;;10.85;74.23;100525.00;5042148;28;20221;-82
2022/05/29 05:54:29;;;;;;;6.77;3.20;;;;;;;10.86;73.83;100534.72;5034704;28;20558;-81
2022/05/29 05:56:56;;;;;;;8.13;2.90;;;;;;;10.86;73.67;100532.03;5043807;28;20300;-82
2022/05/29 05:59:22;;;;;;;11.33;2.80;;;;;;;10.90;73.74;100530.88;5050033;28;20206;-81
2022/05/29 06:01:49;;;;;;;7.63;2.40;;;;;;;10.93;74.08;100528.00;5042335;28;20202;-83
2022/05/29 06:04:15;;;;;;;8.80;2.70;;;;;;;10.95;73.68;100528.75;5045466;28;20202;-82
2022/05/29 06:06:43;;;;;;;5.73;2.33;;;;;;;10.97;73.54;100529.50;5047350;28;20217;-81
2022/05/29 06:09:10;;;;;;;8.53;3.10;;;;;;;11.00;73.55;100529.31;5048457;28;20206;-81
2022/05/29 06:11:39;;;;;;;11.67;3.90;;;;;;;11.02;73.77;100534.53;5042953;28;20867;-82
2022/05/29 06:14:06;;;;;;;8.07;2.93;;;;;;;11.03;73.64;100523.78;5038519;28;20252;-81
2022/05/29 06:16:33;;;;;;;8.80;2.93;;;;;;;11.05;73.70;100532.53;5041561;28;20252;-82
2022/05/29 06:18:59;;;;;;;7.83;3.17;;;;;;;11.06;73.50;100528.91;5045366;28;20300;-81
2022/05/29 06:21:26;;;;;;;10.23;3.90;;;;;;;11.08;73.24;100539.47;5041645;28;20202;-82
2022/05/29 06:23:54;;;;;;;9.97;3.13;;;;;;;11.08;73.55;100528.81;5042120;28;20226;-83
2022/05/29 06:26:21;;;;;;;8.10;3.27;;;;;;;11.05;73.28;100537.84;5039643;28;20206;-82
2022/05/29 06:28:47;;;;;;;7.47;3.30;;;;;;;11.05;73.18;100532.53;5043742;28;20587;-82
2022/05/29 06:31:14;;;;;;;7.50;3.27;;;;;;;11.05;73.18;100535.19;5041541;28;20225;-83
2022/05/29 06:33:41;;;;;;;8.93;3.37;;;;;;;11.09;73.21;100541.19;5040346;28;20614;-84
2022/05/29 06:36:10;;;;;;;6.23;2.90;;;;;;;11.12;73.24;100536.47;5047153;28;20218;-82
2022/05/29 06:38:37;;;;;;;6.23;3.13;;;;;;;11.13;72.89;100529.31;5048383;28;20241;-81
2022/05/29 06:41:07;;;;;;;6.80;3.53;;;;;;;11.14;73.15;100533.69;5049064;28;20200;-82
2022/05/29 06:43:33;;;;;;;8.07;3.23;;;;;;;11.15;73.21;100532.75;5051296;28;20589;-81
2022/05/29 06:46:01;;;;;;;10.13;3.27;;;;;;;11.19;72.97;100528.06;5050295;28;20251;-81
2022/05/29 06:48:28;;;;;;;9.37;4.03;;;;;;;11.24;73.04;100534.81;5050876;28;20202;-81
2022/05/29 06:50:55;;;;;;;9.93;3.40;;;;;;;11.25;72.94;100533.84;5050785;28;20713;-82
2022/05/29 06:53:22;;;;;;;11.10;2.97;;;;;;;11.28;72.94;100536.31;5051229;28;20723;-82
2022/05/29 06:55:52;;;;;;;7.60;2.80;;;;;;;11.30;72.74;100530.84;5037172;28;20211;-81
2022/05/29 06:58:20;;;;;;;11.53;4.27;;;;;;;11.34;72.88;100535.00;5041960;28;20209;-84
2022/05/29 07:08:59;;;;;;;8.97;3.40;;;;;;;11.44;72.57;100530.78;5038805;28;20218;-83
2022/05/29 07:11:30;;;;;;;4.77;2.70;;;;;;;11.45;72.42;100524.50;5040797;28;20229;-83
2022/05/29 07:13:59;;;;;;;6.37;2.90;;;;;;;11.47;72.52;100530.53;5046732;28;20770;-83
2022/05/29 07:16:26;;;;;;;10.53;3.57;;;;;;;11.50;72.78;100527.66;5041923;28;20208;-82
2022/05/29 07:18:54;;;;;;;10.33;3.27;;;;;;;11.56;73.08;100529.91;5039890;28;20250;-83
2022/05/29 07:21:22;;;;;;;5.43;2.50;;;;;;;11.61;73.35;100530.47;5049575;28;20234;-83
2022/05/29 07:23:48;;;;;;;6.60;3.10;;;;;;;11.66;73.07;100525.63;5046067;28;20279;-80
2022/05/29 07:26:16;;;;;;;7.47;3.00;;;;;;;11.67;72.56;100529.16;5042056;28;20214;-80
2022/05/29 07:28:43;;;;;;;8.87;3.20;;;;;;;11.67;72.12;100518.50;5041440;28;20198;-80
2022/05/29 07:31:11;;;;;;;10.97;3.40;;;;;;;11.68;72.03;100520.19;5045563;28;21490;-80
2022/05/29 07:33:38;;;;;;;8.00;2.50;;;;;;;11.71;71.89;100520.84;5035028;28;20788;-80
2022/05/29 07:36:08;;;;;;;6.77;3.10;;;;;;;11.78;71.97;100516.84;5040916;28;20652;-79
2022/05/29 07:38:35;;;;;;;4.40;2.83;;;;;;;11.90;72.03;100522.25;5038012;28;20219;-79
2022/05/29 07:41:01;;;;;;;6.73;2.47;;;;;;;12.02;71.45;100508.03;5041282;28;20205;-82
2022/05/29 07:43:27;;;;;;;8.47;2.60;;;;;;;12.12;71.08;100506.41;5041378;28;20232;-82
2022/05/29 07:45:56;;;;;;;4.60;2.10;;;;;;;12.18;70.69;100522.84;5045168;28;21503;-81
2022/05/29 07:48:28;;;;;;;4.47;2.30;;;;;;;12.21;70.21;100508.41;5043093;28;20215;-81
2022/05/29 07:50:55;;;;;;;8.40;2.60;;;;;;;12.20;70.04;100517.38;5049890;28;20229;-82
2022/05/29 07:53:22;;;;;;;4.73;2.53;;;;;;;12.18;70.21;100519.34;5045619;28;20272;-80
2022/05/29 07:55:49;;;;;;;8.10;3.87;;;;;;;12.13;70.30;100511.66;5046960;28;20209;-80
2022/05/29 07:58:17;;;;;;;5.20;2.40;;;;;;;12.10;70.64;100519.03;5041211;28;20212;-80
2022/05/29 08:00:43;;;;;;;7.33;2.53;;;;;;;12.09;70.83;100530.66;5038700;28;20839;-80
2022/05/29 08:03:10;;;;;;;6.53;2.40;;;;;;;12.09;70.71;100522.66;5037657;28;20236;-81
2022/05/29 08:05:39;;;;;;;4.33;2.27;;;;;;;12.10;70.24;100519.88;5039870;28;20653;-81
2022/05/29 08:08:08;;;;;;;5.47;1.50;;;;;;;12.20;71.10;100517.38;5038086;28;20221;-80
2022/05/29 08:10:37;;;;;;;5.50;1.73;;;;;;;12.33;70.92;100531.56;5037895;28;22200;-81
2022/05/29 08:13:04;;;;;;;3.67;1.83;;;;;;;12.43;70.52;100518.38;5044884;28;20225;-80
2022/05/29 08:15:30;;;;;;;3.27;1.53;;;;;;;12.49;70.10;100520.63;5049042;28;20209;-80
2022/05/29 08:17:57;;;;;;;4.07;1.87;;;;;;;12.55;69.76;100517.47;5047350;28;20205;-80
2022/05/29 08:20:26;;;;;;;4.73;2.03;;;;;;;12.59;69.52;100524.31;5049427;28;20209;-80
2022/05/29 08:22:54;;;;;;;3.00;1.53;;;;;;;12.64;69.75;100524.84;5049416;28;20710;-80
2022/05/29 08:30:53;;;;;;;3.10;2.13;;;;;;;13.05;69.47;100519.06;5044472;28;20255;-80
2022/05/29 08:33:23;;;;;;;4.23;2.00;;;;;;;13.15;68.25;100528.13;5043149;28;20328;-80
2022/05/29 08:35:53;;;;;;;4.80;1.67;;;;;;;13.23;67.46;100519.53;5038225;28;20214;-81
2022/05/29 08:38:21;;;;;;;5.07;1.80;;;;;;;13.32;67.29;100516.13;5033500;28;20204;-80
2022/05/29 08:40:50;;;;;;;4.93;2.10;;;;;;;13.44;67.33;100512.50;5037548;28;20209;-80
2022/05/29 08:43:25;;;;;;;4.87;2.00;;;;;;;13.58;67.10;100513.28;5046098;28;20311;-80
2022/05/29 08:45:53;;;;;;;4.83;1.80;;;;;;;13.68;66.71;100516.94;5040041;28;20201;-79
2022/05/29 08:48:22;;;;;;;4.93;1.83;;;;;;;13.81;66.38;100518.50;5043821;28;20255;-80
2022/05/29 08:50:57;;;;;;;2.27;1.50;;;;;;;13.95;66.47;100511.25;5041446;28;20226;-80
2022/05/29 08:53:35;;;;;;;2.70;1.30;;;;;;;14.08;65.74;100511.97;5040504;28;20241;-81
2022/05/29 08:56:13;;;;;;;3.27;1.17;;;;;;;14.10;63.66;100516.22;5044870;28;20275;-81
2022/05/29 08:59:01;;;;;;;3.63;1.17;;;;;;;14.11;63.34;100509.03;5045319;28;20203;-82
2022/05/29 09:01:38;;;;;;;1.50;1.37;;;;;;;14.13;63.00;100504.41;5053306;28;20193;-82
2022/05/29 09:04:11;;;;;;;2.43;0.90;;;;;;;14.25;63.05;100498.91;5043837;28;20218;-82
2022/05/29 09:06:43;;;;;;;2.30;1.07;;;;;;;14.45;63.45;100499.16;5053580;28;20204;-81
2022/05/29 09:09:21;;;;;;;1.63;1.07;;;;;;;14.54;61.67;100493.03;5049554;28;20212;-82
2022/05/29 09:11:51;;;;;;;1.73;1.00;;;;;;;14.59;60.67;100505.06;5044183;28;20221;-82
2022/05/29 09:14:23;;;;;;;2.53;1.43;;;;;;;14.62;60.73;100495.94;5050235;28;20201;-82
2022/05/29 09:16:57;;;;;;;2.03;1.17;;;;;;;14.66;60.99;100497.38;5052699;28;20208;-82
2022/05/29 09:19:34;;;;;;;4.87;1.10;;;;;;;14.72;61.20;100496.00;5052899;28;20673;-82
2022/05/29 09:22:04;;;;;;;4.70;1.60;;;;;;;14.75;60.76;100495.75;5046979;28;20194;-82
2022/05/29 09:25:00;;;;;;;2.23;1.00;;;;;;;14.76;60.74;100487.59;5040649;28;20206;-80
2022/05/29 09:27:28;;;;;;;2.53;1.17;;;;;;;14.81;59.27;100489.91;5029737;28;20201;-79
2022/05/29 09:29:54;;;;;;;2.27;1.20;;;;;;;14.81;58.78;100492.56;5040210;28;20204;-80
2022/05/29 09:32:24;;;;;;;3.67;1.50;;;;;;;14.79;58.86;100489.16;5042954;28;20252;-79
2022/05/29 09:34:58;;;;;;;3.47;1.30;;;;;;;14.77;59.00;100504.53;5045689;28;20759;-80
2022/05/29 09:37:34;;;;;;;2.27;1.10;;;;;;;14.77;59.30;100488.44;5038344;28;20568;-81
2022/05/29 09:40:04;;;;;;;2.53;1.00;;;;;;;14.77;60.44;100491.13;5037571;28;20225;-81
2022/05/29 09:42:37;;;;;;;2.77;1.03;;;;;;;14.72;60.67;100498.69;5044252;28;20911;-80
2022/05/29 09:45:10;;;;;;;3.10;1.37;;;;;;;14.61;60.85;100491.56;5042018;28;20198;-79
2022/05/29 09:50:22;;;;;;;3.30;1.27;;;;;;;14.50;61.57;100486.22;5044722;28;20205;-79
2022/05/29 09:52:49;;;;;;;2.30;1.20;;;;;;;14.51;60.95;100487.94;5048710;28;20316;-80
2022/05/29 09:55:26;;;;;;;2.70;1.20;;;;;;;14.54;60.92;100487.66;5047640;28;20552;-80
2022/05/29 09:57:57;;;;;;;1.70;0.90;;;;;;;14.62;60.86;100493.25;5040732;28;20666;-79
2022/05/29 10:00:30;;;;;;;2.07;1.27;;;;;;;14.72;61.70;100485.28;5042379;28;20200;-79
2022/05/29 10:02:59;;;;;;;3.60;1.70;;;;;;;14.85;61.69;100492.19;5043261;28;20226;-79
2022/05/29 10:05:28;;;;;;;2.10;1.13;;;;;;;14.93;61.54;100489.72;5044376;28;20260;-80
2022/05/29 10:07:58;;;;;;;2.93;1.10;;;;;;;15.04;61.14;100490.66;5038748;28;20209;-79
2022/05/29 10:10:34;;;;;;;1.43;0.73;;;;;;;15.08;60.33;100492.94;5033215;28;20203;-80
2022/05/29 10:13:02;;;;;;;1.17;0.50;;;;;;;15.09;59.63;100491.94;5036025;28;20232;-80
2022/05/29 10:15:39;;;;;;;1.23;0.80;;;;;;;15.14;60.01;100480.84;5041655;28;20656;-79
2022/05/29 10:18:12;;;;;;;1.17;0.60;;;;;;;15.26;60.05;100479.78;5045121;28;20209;-79
2022/05/29 10:20:41;;;;;;;1.33;0.57;;;;;;;15.34;58.84;100479.13;5039140;28;20194;-79
2022/05/29 10:23:11;;;;;;;1.50;0.90;;;;;;;15.38;57.79;100472.53;5048430;28;20222;-80
2022/05/29 10:25:43;;;;;;;1.97;0.70;;;;;;;15.37;57.18;100462.78;5043521;28;20207;-80
2022/05/29 10:28:15;;;;;;;2.17;0.80;;;;;;;15.46;57.17;100472.69;5040113;28;20202;-80
2022/05/29 10:30:48;;;;;;;1.30;0.80;;;;;;;15.56;56.65;100470.97;5044077;28;20198;-80
2022/05/29 10:33:20;;;;;;;1.43;0.90;;;;;;;15.67;56.85;100470.03;5039236;28;20236;-80
2022/05/29 10:35:48;;;;;;;1.60;0.67;;;;;;;15.77;56.50;100466.38;5043153;28;20227;-80
2022/05/29 10:38:24;;;;;;;1.70;0.83;;;;;;;15.83;55.87;100459.63;5043538;28;20582;-80
2022/05/29 10:40:54;;;;;;;3.13;0.70;;;;;;;15.84;55.48;100481.00;5038775;28;20270;-80
2022/05/29 10:43:51;;;;;;;3.07;1.40;;;;;;;15.79;56.42;100495.78;5038608;28;20217;-80
2022/05/29 10:46:20;;;;;;;4.80;1.30;;;;;;;15.64;58.52;100500.66;5043190;28;20263;-80
2022/05/29 10:49:05;;;;;;;2.80;1.60;;;;;;;15.44;60.05;100498.81;5039577;28;20206;-79
2022/05/29 10:51:44;;;;;;;3.57;1.50;;;;;;;15.17;61.16;100502.03;5038756;28;20308;-79
2022/05/29 10:54:23;;;;;;;3.53;1.30;;;;;;;14.94;62.52;100501.28;5039563;28;20205;-79
2022/05/29 10:57:08;;;;;;;4.70;1.60;;;;;;;14.71;63.67;100497.84;5044575;28;20316;-79
2022/05/29 11:00:07;;;;;;;3.80;1.60;;;;;;;14.53;64.97;100502.88;5038053;28;20202;-79
2022/05/29 11:05:57;;;;;;;3.00;1.50;;;;;;;14.28;66.45;100496.97;5043757;28;20255;-79
2022/05/29 11:08:35;;;;;;;2.90;1.73;;;;;;;14.17;67.58;100500.50;5040978;28;20720;-79
2022/05/29 11:11:14;;;;;;;3.43;1.57;;;;;;;14.12;68.37;100487.50;5041329;28;20220;-78
2022/05/29 11:14:10;;;;;;;2.37;1.70;;;;;;;14.10;69.06;100483.22;5038891;28;20317;-79
2022/05/29 11:16:51;;;;;;;1.77;1.53;;;;;;;14.05;69.34;100480.91;5041468;28;20201;-79
2022/05/29 11:20:04;;;;;;;2.57;1.33;;;;;;;14.00;69.57;100474.22;5038053;28;20201;-79
2022/05/29 11:22:39;;;;;;;2.10;1.37;;;;;;;14.00;70.70;100474.22;4958974;28;20228;-79
2022/05/29 11:25:20;;;;;;;2.17;1.13;;;;;;;14.01;70.51;100467.88;5026488;28;20216;-79
2022/05/29 11:28:08;;;;;;;1.43;1.10;;;;;;;13.99;70.86;100461.81;5036535;28;20288;-79
2022/05/29 11:30:53;;;;;;;2.57;1.30;;;;;;;14.00;70.69;100464.34;5039109;28;20217;-79
2022/05/29 11:33:33;;;;;;;2.67;1.23;;;;;;;14.05;71.07;100467.53;5040908;28;20233;-79
2022/05/29 11:36:11;;;;;;;1.80;1.30;;;;;;;14.06;70.54;100469.22;5037443;28;20733;-79
2022/05/29 11:39:02;;;;;;;2.83;1.83;;;;;;;14.10;70.77;100461.81;5036416;28;20691;-79
2022/05/29 11:41:38;;;;;;;4.70;1.90;;;;;;;14.10;70.92;100461.81;5041409;28;20206;-79
2022/05/29 11:44:13;;;;;;;4.33;2.23;;;;;;;14.16;71.14;100462.13;5037969;28;20216;-79
2022/05/29 11:52:33;;;;;;;3.53;2.20;;;;;;;14.26;70.82;100451.53;5035534;28;20240;-79
2022/05/29 11:55:11;;;;;;;3.03;1.30;;;;;;;14.31;70.53;100445.81;5035994;28;20206;-79
2022/05/29 11:57:44;;;;;;;2.40;1.60;;;;;;;14.33;70.35;100449.22;5042608;28;20193;-79
2022/05/29 12:00:31;;;;;;;3.07;1.70;;;;;;;14.31;69.66;100446.66;5045147;28;20255;-78
2022/05/29 12:03:15;;;;;;;2.33;1.60;;;;;;;14.31;69.51;100440.47;5046507;28;20887;-79
2022/05/29 12:05:51;;;;;;;3.33;1.00;;;;;;;14.28;69.24;100443.38;5042542;28;20204;-78
2022/05/29 12:08:28;;;;;;;3.07;1.20;;;;;;;14.19;68.79;100444.97;5043220;28;20212;-79
2022/05/29 12:11:06;;;;;;;2.70;0.90;;;;;;;14.10;68.63;100441.22;5044005;28;20201;-79
2022/05/29 12:13:42;;;;;;;1.53;0.87;;;;;;;14.05;68.67;100439.91;5037823;28;20336;-79
2022/05/29 12:16:13;;;;;;;2.70;0.90;;;;;;;13.98;68.70;100436.00;5037205;28;20205;-79